sensor_id;sensor_type;location;lat;lon;timestamp;P1;durP1;ratioP1;P2;durP2;ratioP2
19278;SDS011;9773;47.062;15.446;2022-12-18T00:02:03;15.23;;;9.40;;
19278;SDS011;9773;47.062;15.446;2022-12-18T00:04:29;16.23;;;9.70;;
19278;SDS011;9773;47.062;15.446;2022-12-18T00:06:55;15.80;;;9.83;;
19278;SDS011;9773;47.062;15.446;2022-12-18T00:09:21;14.83;;;9.67;;
19278;SDS011;9773;47.062;15.446;2022-12-18T00:11:47;15.27;;;10.00;;
19278;SDS011;9773;47.062;15.446;2022-12-18T00:14:13;14.37;;;9.70;;
19278;SDS011;9773;47.062;15.446;2022-12-18T00:16:39;18.67;;;10.97;;
19278;SDS011;9773;47.062;15.446;2022-12-18T00:19:05;18.07;;;10.57;;
19278;SDS011;9773;47.062;15.446;2022-12-18T00:21:32;19.30;;;11.07;;
19278;SDS011;9773;47.062;15.446;2022-12-18T00:23:59;15.63;;;9.57;;
19278;SDS011;9773;47.062;15.446;2022-12-18T00:26:27;13.33;;;9.50;;
19278;SDS011;9773;47.062;15.446;2022-12-18T00:29:00;15.53;;;9.67;;
19278;SDS011;9773;47.062;15.446;2022-12-18T00:31:31;15.33;;;10.07;;
19278;SDS011;9773;47.062;15.446;2022-12-18T00:33:58;13.43;;;9.30;;
19278;SDS011;9773;47.062;15.446;2022-12-18T00:36:25;15.30;;;9.30;;
19278;SDS011;9773;47.062;15.446;2022-12-18T00:38:53;13.57;;;9.67;;
19278;SDS011;9773;47.062;15.446;2022-12-18T00:41:20;15.30;;;9.20;;
19278;SDS011;9773;47.062;15.446;2022-12-18T00:44:06;12.93;;;9.23;;
19278;SDS011;9773;47.062;15.446;2022-12-18T00:46:34;15.57;;;9.53;;
19278;SDS011;9773;47.062;15.446;2022-12-18T00:49:00;14.77;;;9.63;;
19278;SDS011;9773;47.062;15.446;2022-12-18T00:51:26;14.57;;;9.50;;
19278;SDS011;9773;47.062;15.446;2022-12-18T00:53:52;13.63;;;8.53;;
19278;SDS011;9773;47.062;15.446;2022-12-18T00:56:18;14.63;;;9.60;;
19278;SDS011;9773;47.062;15.446;2022-12-18T00:58:44;11.87;;;9.07;;
19278;SDS011;9773;47.062;15.446;2022-12-18T01:01:10;17.07;;;9.47;;
19278;SDS011;9773;47.062;15.446;2022-12-18T01:03:36;12.50;;;8.87;;
19278;SDS011;9773;47.062;15.446;2022-12-18T01:06:10;10.87;;;8.00;;
19278;SDS011;9773;47.062;15.446;2022-12-18T01:08:37;14.00;;;8.90;;
19278;SDS011;9773;47.062;15.446;2022-12-18T01:11:07;13.20;;;7.90;;
19278;SDS011;9773;47.062;15.446;2022-12-18T01:13:35;11.80;;;7.70;;
19278;SDS011;9773;47.062;15.446;2022-12-18T01:16:01;9.87;;;7.50;;
19278;SDS011;9773;47.062;15.446;2022-12-18T01:18:27;10.17;;;7.30;;
19278;SDS011;9773;47.062;15.446;2022-12-18T01:20:52;12.53;;;8.03;;
19278;SDS011;9773;47.062;15.446;2022-12-18T01:23:18;8.90;;;7.67;;
19278;SDS011;9773;47.062;15.446;2022-12-18T01:25:44;9.67;;;7.30;;
19278;SDS011;9773;47.062;15.446;2022-12-18T01:28:10;9.10;;;6.97;;
19278;SDS011;9773;47.062;15.446;2022-12-18T01:30:36;11.30;;;7.50;;
19278;SDS011;9773;47.062;15.446;2022-12-18T01:33:03;9.43;;;6.90;;
19278;SDS011;9773;47.062;15.446;2022-12-18T01:35:29;11.17;;;7.23;;
19278;SDS011;9773;47.062;15.446;2022-12-18T01:37:55;7.67;;;6.03;;
19278;SDS011;9773;47.062;15.446;2022-12-18T01:40:22;11.53;;;7.73;;
19278;SDS011;9773;47.062;15.446;2022-12-18T01:42:51;9.87;;;7.13;;
19278;SDS011;9773;47.062;15.446;2022-12-18T01:47:46;9.40;;;6.57;;
19278;SDS011;9773;47.062;15.446;2022-12-18T01:50:24;8.00;;;6.20;;
19278;SDS011;9773;47.062;15.446;2022-12-18T01:52:52;8.23;;;6.17;;
19278;SDS011;9773;47.062;15.446;2022-12-18T01:55:25;9.30;;;6.40;;
19278;SDS011;9773;47.062;15.446;2022-12-18T01:57:54;8.37;;;6.10;;
19278;SDS011;9773;47.062;15.446;2022-12-18T02:00:22;9.27;;;6.13;;
19278;SDS011;9773;47.062;15.446;2022-12-18T02:02:50;7.97;;;6.70;;
19278;SDS011;9773;47.062;15.446;2022-12-18T02:05:19;8.83;;;6.37;;
19278;SDS011;9773;47.062;15.446;2022-12-18T02:11:02;7.87;;;6.00;;
19278;SDS011;9773;47.062;15.446;2022-12-18T02:16:19;8.67;;;6.53;;
19278;SDS011;9773;47.062;15.446;2022-12-18T02:18:55;10.67;;;7.50;;
19278;SDS011;9773;47.062;15.446;2022-12-18T02:27:07;8.67;;;6.70;;
19278;SDS011;9773;47.062;15.446;2022-12-18T02:29:36;9.67;;;6.77;;
19278;SDS011;9773;47.062;15.446;2022-12-18T02:32:18;9.97;;;6.80;;
19278;SDS011;9773;47.062;15.446;2022-12-18T02:34:49;10.53;;;6.77;;
19278;SDS011;9773;47.062;15.446;2022-12-18T02:37:17;9.93;;;7.10;;
19278;SDS011;9773;47.062;15.446;2022-12-18T02:39:46;8.83;;;6.93;;
19278;SDS011;9773;47.062;15.446;2022-12-18T02:42:13;11.80;;;7.23;;
19278;SDS011;9773;47.062;15.446;2022-12-18T02:44:43;11.67;;;7.53;;
19278;SDS011;9773;47.062;15.446;2022-12-18T02:47:11;13.47;;;8.20;;
19278;SDS011;9773;47.062;15.446;2022-12-18T03:00:29;13.57;;;7.47;;
19278;SDS011;9773;47.062;15.446;2022-12-18T03:02:57;11.63;;;7.33;;
19278;SDS011;9773;47.062;15.446;2022-12-18T03:05:38;11.90;;;8.40;;
19278;SDS011;9773;47.062;15.446;2022-12-18T03:08:15;11.90;;;7.47;;
19278;SDS011;9773;47.062;15.446;2022-12-18T03:10:48;12.03;;;7.90;;
19278;SDS011;9773;47.062;15.446;2022-12-18T03:13:39;9.83;;;6.60;;
19278;SDS011;9773;47.062;15.446;2022-12-18T03:16:23;11.77;;;7.13;;
19278;SDS011;9773;47.062;15.446;2022-12-18T03:18:53;8.33;;;6.60;;
19278;SDS011;9773;47.062;15.446;2022-12-18T03:21:29;12.40;;;7.23;;
19278;SDS011;9773;47.062;15.446;2022-12-18T03:24:01;7.57;;;6.17;;
19278;SDS011;9773;47.062;15.446;2022-12-18T03:26:32;7.27;;;5.60;;
19278;SDS011;9773;47.062;15.446;2022-12-18T03:29:04;8.60;;;5.67;;
19278;SDS011;9773;47.062;15.446;2022-12-18T03:31:35;8.00;;;5.63;;
19278;SDS011;9773;47.062;15.446;2022-12-18T03:34:05;8.30;;;6.30;;
19278;SDS011;9773;47.062;15.446;2022-12-18T03:36:38;8.70;;;6.30;;
19278;SDS011;9773;47.062;15.446;2022-12-18T03:39:04;9.63;;;6.33;;
19278;SDS011;9773;47.062;15.446;2022-12-18T03:44:44;8.63;;;6.10;;
19278;SDS011;9773;47.062;15.446;2022-12-18T03:47:33;10.63;;;6.37;;
19278;SDS011;9773;47.062;15.446;2022-12-18T03:52:41;9.13;;;6.03;;
19278;SDS011;9773;47.062;15.446;2022-12-18T03:55:28;7.67;;;5.40;;
19278;SDS011;9773;47.062;15.446;2022-12-18T03:57:58;8.37;;;6.17;;
19278;SDS011;9773;47.062;15.446;2022-12-18T04:00:26;7.03;;;5.20;;
19278;SDS011;9773;47.062;15.446;2022-12-18T04:02:55;7.53;;;5.03;;
19278;SDS011;9773;47.062;15.446;2022-12-18T04:05:24;5.47;;;4.97;;
19278;SDS011;9773;47.062;15.446;2022-12-18T04:07:51;7.93;;;5.23;;
19278;SDS011;9773;47.062;15.446;2022-12-18T04:10:18;5.70;;;4.83;;
19278;SDS011;9773;47.062;15.446;2022-12-18T04:12:44;7.43;;;5.80;;
19278;SDS011;9773;47.062;15.446;2022-12-18T04:15:10;7.30;;;5.10;;
19278;SDS011;9773;47.062;15.446;2022-12-18T04:17:36;6.07;;;5.30;;
19278;SDS011;9773;47.062;15.446;2022-12-18T04:20:03;7.37;;;4.93;;
19278;SDS011;9773;47.062;15.446;2022-12-18T04:22:29;6.57;;;4.97;;
19278;SDS011;9773;47.062;15.446;2022-12-18T04:24:55;6.70;;;4.77;;
19278;SDS011;9773;47.062;15.446;2022-12-18T04:27:21;6.47;;;5.17;;
19278;SDS011;9773;47.062;15.446;2022-12-18T04:29:47;5.70;;;4.67;;
19278;SDS011;9773;47.062;15.446;2022-12-18T04:32:12;5.47;;;4.97;;
19278;SDS011;9773;47.062;15.446;2022-12-18T04:34:38;8.80;;;5.70;;
19278;SDS011;9773;47.062;15.446;2022-12-18T04:37:04;18.53;;;11.13;;
19278;SDS011;9773;47.062;15.446;2022-12-18T04:39:30;12.50;;;7.80;;
19278;SDS011;9773;47.062;15.446;2022-12-18T04:41:56;11.27;;;7.27;;
19278;SDS011;9773;47.062;15.446;2022-12-18T04:44:24;8.07;;;5.70;;
19278;SDS011;9773;47.062;15.446;2022-12-18T04:46:50;10.43;;;6.70;;
19278;SDS011;9773;47.062;15.446;2022-12-18T04:49:16;8.30;;;5.93;;
19278;SDS011;9773;47.062;15.446;2022-12-18T04:51:41;6.37;;;5.40;;
19278;SDS011;9773;47.062;15.446;2022-12-18T04:54:07;8.77;;;6.00;;
19278;SDS011;9773;47.062;15.446;2022-12-18T04:56:33;7.00;;;5.37;;
19278;SDS011;9773;47.062;15.446;2022-12-18T04:58:59;8.67;;;5.87;;
19278;SDS011;9773;47.062;15.446;2022-12-18T05:01:25;9.43;;;6.73;;
19278;SDS011;9773;47.062;15.446;2022-12-18T05:03:52;8.03;;;6.30;;
19278;SDS011;9773;47.062;15.446;2022-12-18T05:06:18;11.33;;;6.70;;
19278;SDS011;9773;47.062;15.446;2022-12-18T05:08:43;12.93;;;6.97;;
19278;SDS011;9773;47.062;15.446;2022-12-18T05:11:10;9.90;;;6.50;;
19278;SDS011;9773;47.062;15.446;2022-12-18T05:13:39;9.60;;;6.93;;
19278;SDS011;9773;47.062;15.446;2022-12-18T05:16:05;9.03;;;7.07;;
19278;SDS011;9773;47.062;15.446;2022-12-18T05:18:31;11.37;;;7.43;;
19278;SDS011;9773;47.062;15.446;2022-12-18T05:20:57;13.27;;;7.33;;
19278;SDS011;9773;47.062;15.446;2022-12-18T05:23:23;9.87;;;7.07;;
19278;SDS011;9773;47.062;15.446;2022-12-18T05:25:53;9.77;;;7.00;;
19278;SDS011;9773;47.062;15.446;2022-12-18T05:28:20;13.07;;;7.37;;
19278;SDS011;9773;47.062;15.446;2022-12-18T05:30:57;13.50;;;8.50;;
19278;SDS011;9773;47.062;15.446;2022-12-18T05:33:24;13.00;;;7.97;;
19278;SDS011;9773;47.062;15.446;2022-12-18T05:35:55;12.87;;;7.10;;
19278;SDS011;9773;47.062;15.446;2022-12-18T05:38:26;13.00;;;8.17;;
19278;SDS011;9773;47.062;15.446;2022-12-18T05:40:53;11.43;;;7.97;;
19278;SDS011;9773;47.062;15.446;2022-12-18T05:43:19;12.50;;;8.17;;
19278;SDS011;9773;47.062;15.446;2022-12-18T05:45:47;14.43;;;8.50;;
19278;SDS011;9773;47.062;15.446;2022-12-18T05:48:13;14.63;;;8.57;;
19278;SDS011;9773;47.062;15.446;2022-12-18T05:50:40;12.43;;;8.07;;
19278;SDS011;9773;47.062;15.446;2022-12-18T05:53:07;13.13;;;8.00;;
19278;SDS011;9773;47.062;15.446;2022-12-18T05:55:34;12.73;;;8.57;;
19278;SDS011;9773;47.062;15.446;2022-12-18T05:58:01;16.83;;;8.80;;
19278;SDS011;9773;47.062;15.446;2022-12-18T06:00:27;14.40;;;8.90;;
19278;SDS011;9773;47.062;15.446;2022-12-18T06:02:53;13.37;;;8.83;;
19278;SDS011;9773;47.062;15.446;2022-12-18T06:05:19;14.33;;;9.07;;
19278;SDS011;9773;47.062;15.446;2022-12-18T06:07:45;14.70;;;9.97;;
19278;SDS011;9773;47.062;15.446;2022-12-18T06:10:11;16.17;;;9.30;;
19278;SDS011;9773;47.062;15.446;2022-12-18T06:12:37;14.50;;;9.27;;
19278;SDS011;9773;47.062;15.446;2022-12-18T06:15:03;11.87;;;8.47;;
19278;SDS011;9773;47.062;15.446;2022-12-18T06:17:29;16.27;;;8.67;;
19278;SDS011;9773;47.062;15.446;2022-12-18T06:19:56;18.03;;;10.83;;
19278;SDS011;9773;47.062;15.446;2022-12-18T06:22:22;16.43;;;9.60;;
19278;SDS011;9773;47.062;15.446;2022-12-18T06:24:48;15.73;;;8.93;;
19278;SDS011;9773;47.062;15.446;2022-12-18T06:27:14;16.70;;;10.07;;
19278;SDS011;9773;47.062;15.446;2022-12-18T06:29:40;13.30;;;8.10;;
19278;SDS011;9773;47.062;15.446;2022-12-18T06:32:06;14.23;;;8.27;;
19278;SDS011;9773;47.062;15.446;2022-12-18T06:34:32;14.10;;;8.67;;
19278;SDS011;9773;47.062;15.446;2022-12-18T06:36:58;10.03;;;7.80;;
19278;SDS011;9773;47.062;15.446;2022-12-18T06:39:26;12.67;;;7.97;;
19278;SDS011;9773;47.062;15.446;2022-12-18T06:41:52;12.13;;;7.17;;
19278;SDS011;9773;47.062;15.446;2022-12-18T06:44:18;13.43;;;9.10;;
19278;SDS011;9773;47.062;15.446;2022-12-18T06:46:44;14.53;;;7.93;;
19278;SDS011;9773;47.062;15.446;2022-12-18T06:49:10;11.17;;;7.33;;
19278;SDS011;9773;47.062;15.446;2022-12-18T06:51:36;12.40;;;7.40;;
19278;SDS011;9773;47.062;15.446;2022-12-18T06:54:02;9.53;;;6.77;;
19278;SDS011;9773;47.062;15.446;2022-12-18T06:56:28;10.70;;;6.93;;
19278;SDS011;9773;47.062;15.446;2022-12-18T06:58:53;8.83;;;7.00;;
19278;SDS011;9773;47.062;15.446;2022-12-18T07:01:20;8.40;;;5.60;;
19278;SDS011;9773;47.062;15.446;2022-12-18T07:03:46;9.63;;;6.70;;
19278;SDS011;9773;47.062;15.446;2022-12-18T07:06:13;9.87;;;6.10;;
19278;SDS011;9773;47.062;15.446;2022-12-18T07:08:40;9.03;;;5.73;;
19278;SDS011;9773;47.062;15.446;2022-12-18T07:11:06;7.00;;;5.30;;
19278;SDS011;9773;47.062;15.446;2022-12-18T07:13:32;7.97;;;5.80;;
19278;SDS011;9773;47.062;15.446;2022-12-18T07:18:55;9.87;;;5.97;;
19278;SDS011;9773;47.062;15.446;2022-12-18T07:21:22;7.43;;;5.50;;
19278;SDS011;9773;47.062;15.446;2022-12-18T07:23:48;7.17;;;5.73;;
19278;SDS011;9773;47.062;15.446;2022-12-18T07:26:16;8.50;;;6.00;;
19278;SDS011;9773;47.062;15.446;2022-12-18T07:28:45;7.07;;;5.50;;
19278;SDS011;9773;47.062;15.446;2022-12-18T07:31:13;7.27;;;5.83;;
19278;SDS011;9773;47.062;15.446;2022-12-18T07:33:41;7.87;;;5.40;;
19278;SDS011;9773;47.062;15.446;2022-12-18T07:36:07;8.53;;;5.90;;
19278;SDS011;9773;47.062;15.446;2022-12-18T07:38:35;6.13;;;5.30;;
19278;SDS011;9773;47.062;15.446;2022-12-18T07:41:01;9.10;;;5.83;;
19278;SDS011;9773;47.062;15.446;2022-12-18T07:43:28;6.50;;;5.07;;
19278;SDS011;9773;47.062;15.446;2022-12-18T07:45:53;6.47;;;5.20;;
19278;SDS011;9773;47.062;15.446;2022-12-18T07:48:19;5.10;;;4.43;;
19278;SDS011;9773;47.062;15.446;2022-12-18T07:50:45;7.13;;;4.60;;
19278;SDS011;9773;47.062;15.446;2022-12-18T07:53:11;5.57;;;4.30;;
19278;SDS011;9773;47.062;15.446;2022-12-18T07:55:37;5.17;;;4.60;;
19278;SDS011;9773;47.062;15.446;2022-12-18T07:58:03;5.07;;;4.50;;
19278;SDS011;9773;47.062;15.446;2022-12-18T08:00:29;5.00;;;4.50;;
19278;SDS011;9773;47.062;15.446;2022-12-18T08:02:55;8.00;;;4.90;;
19278;SDS011;9773;47.062;15.446;2022-12-18T08:05:21;5.37;;;4.40;;
19278;SDS011;9773;47.062;15.446;2022-12-18T08:07:48;6.43;;;4.83;;
19278;SDS011;9773;47.062;15.446;2022-12-18T08:10:13;7.43;;;4.63;;
19278;SDS011;9773;47.062;15.446;2022-12-18T08:12:39;5.90;;;4.63;;
19278;SDS011;9773;47.062;15.446;2022-12-18T08:15:05;6.33;;;4.87;;
19278;SDS011;9773;47.062;15.446;2022-12-18T08:17:31;5.97;;;4.67;;
19278;SDS011;9773;47.062;15.446;2022-12-18T08:19:57;6.27;;;5.20;;
19278;SDS011;9773;47.062;15.446;2022-12-18T08:22:23;5.77;;;4.60;;
19278;SDS011;9773;47.062;15.446;2022-12-18T08:24:49;6.67;;;5.00;;
19278;SDS011;9773;47.062;15.446;2022-12-18T08:27:14;6.37;;;4.90;;
19278;SDS011;9773;47.062;15.446;2022-12-18T08:29:40;7.00;;;5.27;;
19278;SDS011;9773;47.062;15.446;2022-12-18T08:32:06;6.20;;;4.83;;
19278;SDS011;9773;47.062;15.446;2022-12-18T08:34:32;5.30;;;4.30;;
19278;SDS011;9773;47.062;15.446;2022-12-18T08:36:58;6.43;;;4.77;;
19278;SDS011;9773;47.062;15.446;2022-12-18T08:39:24;6.67;;;5.30;;
19278;SDS011;9773;47.062;15.446;2022-12-18T08:41:49;6.27;;;5.33;;
19278;SDS011;9773;47.062;15.446;2022-12-18T08:44:33;8.07;;;4.97;;
19278;SDS011;9773;47.062;15.446;2022-12-18T08:47:02;8.00;;;4.53;;
19278;SDS011;9773;47.062;15.446;2022-12-18T08:49:29;6.20;;;4.97;;
19278;SDS011;9773;47.062;15.446;2022-12-18T08:51:55;6.17;;;5.17;;
19278;SDS011;9773;47.062;15.446;2022-12-18T08:54:24;7.07;;;5.17;;
19278;SDS011;9773;47.062;15.446;2022-12-18T08:56:50;8.17;;;5.00;;
19278;SDS011;9773;47.062;15.446;2022-12-18T08:59:17;8.27;;;5.63;;
19278;SDS011;9773;47.062;15.446;2022-12-18T09:01:44;6.90;;;5.00;;
19278;SDS011;9773;47.062;15.446;2022-12-18T09:04:10;8.30;;;4.90;;
19278;SDS011;9773;47.062;15.446;2022-12-18T09:06:36;8.13;;;5.13;;
19278;SDS011;9773;47.062;15.446;2022-12-18T09:09:03;9.27;;;5.57;;
19278;SDS011;9773;47.062;15.446;2022-12-18T09:11:29;7.10;;;5.87;;
19278;SDS011;9773;47.062;15.446;2022-12-18T09:13:56;7.90;;;5.80;;
19278;SDS011;9773;47.062;15.446;2022-12-18T09:16:24;8.80;;;6.53;;
19278;SDS011;9773;47.062;15.446;2022-12-18T09:18:50;10.43;;;6.97;;
19278;SDS011;9773;47.062;15.446;2022-12-18T09:21:17;9.23;;;7.53;;
19278;SDS011;9773;47.062;15.446;2022-12-18T09:23:48;9.90;;;7.47;;
19278;SDS011;9773;47.062;15.446;2022-12-18T09:26:15;12.37;;;8.83;;
19278;SDS011;9773;47.062;15.446;2022-12-18T09:28:41;13.63;;;9.43;;
19278;SDS011;9773;47.062;15.446;2022-12-18T09:31:07;12.93;;;8.73;;
19278;SDS011;9773;47.062;15.446;2022-12-18T09:33:37;10.10;;;7.43;;
19278;SDS011;9773;47.062;15.446;2022-12-18T09:36:03;11.23;;;7.53;;
19278;SDS011;9773;47.062;15.446;2022-12-18T09:38:32;11.63;;;8.37;;
19278;SDS011;9773;47.062;15.446;2022-12-18T09:41:05;10.57;;;8.10;;
19278;SDS011;9773;47.062;15.446;2022-12-18T09:43:51;11.03;;;7.83;;
19278;SDS011;9773;47.062;15.446;2022-12-18T09:46:26;11.57;;;7.90;;
19278;SDS011;9773;47.062;15.446;2022-12-18T09:48:59;14.47;;;8.27;;
19278;SDS011;9773;47.062;15.446;2022-12-18T09:51:39;11.67;;;8.60;;
19278;SDS011;9773;47.062;15.446;2022-12-18T09:54:26;11.80;;;8.50;;
19278;SDS011;9773;47.062;15.446;2022-12-18T09:57:03;13.17;;;8.90;;
19278;SDS011;9773;47.062;15.446;2022-12-18T09:59:36;13.90;;;9.10;;
19278;SDS011;9773;47.062;15.446;2022-12-18T10:02:14;11.97;;;8.67;;
19278;SDS011;9773;47.062;15.446;2022-12-18T10:04:53;11.60;;;8.57;;
19278;SDS011;9773;47.062;15.446;2022-12-18T10:27:12;16.83;;;9.53;;
19278;SDS011;9773;47.062;15.446;2022-12-18T10:29:43;13.23;;;8.97;;
19278;SDS011;9773;47.062;15.446;2022-12-18T10:32:17;15.27;;;9.13;;
19278;SDS011;9773;47.062;15.446;2022-12-18T10:34:50;14.80;;;9.20;;
19278;SDS011;9773;47.062;15.446;2022-12-18T10:37:18;14.57;;;9.47;;
19278;SDS011;9773;47.062;15.446;2022-12-18T10:39:46;15.27;;;10.33;;
19278;SDS011;9773;47.062;15.446;2022-12-18T10:42:30;17.13;;;11.17;;
19278;SDS011;9773;47.062;15.446;2022-12-18T10:45:15;22.50;;;11.83;;
19278;SDS011;9773;47.062;15.446;2022-12-18T10:47:45;17.37;;;11.87;;
19278;SDS011;9773;47.062;15.446;2022-12-18T10:50:34;20.07;;;12.33;;
19278;SDS011;9773;47.062;15.446;2022-12-18T10:53:02;15.40;;;10.07;;
19278;SDS011;9773;47.062;15.446;2022-12-18T10:55:33;15.67;;;9.53;;
19278;SDS011;9773;47.062;15.446;2022-12-18T10:58:13;17.50;;;10.87;;
19278;SDS011;9773;47.062;15.446;2022-12-18T11:00:38;16.13;;;10.87;;
19278;SDS011;9773;47.062;15.446;2022-12-18T11:03:07;19.10;;;11.47;;
19278;SDS011;9773;47.062;15.446;2022-12-18T11:06:04;17.13;;;10.37;;
19278;SDS011;9773;47.062;15.446;2022-12-18T11:08:32;17.33;;;10.37;;
19278;SDS011;9773;47.062;15.446;2022-12-18T11:10:58;17.47;;;11.23;;
19278;SDS011;9773;47.062;15.446;2022-12-18T11:13:25;16.90;;;10.83;;
19278;SDS011;9773;47.062;15.446;2022-12-18T11:15:53;18.80;;;11.60;;
19278;SDS011;9773;47.062;15.446;2022-12-18T11:18:29;17.80;;;11.13;;
19278;SDS011;9773;47.062;15.446;2022-12-18T11:20:57;17.27;;;10.27;;
19278;SDS011;9773;47.062;15.446;2022-12-18T11:23:32;19.00;;;10.60;;
19278;SDS011;9773;47.062;15.446;2022-12-18T11:26:01;16.73;;;11.00;;
19278;SDS011;9773;47.062;15.446;2022-12-18T11:28:39;16.67;;;10.27;;
19278;SDS011;9773;47.062;15.446;2022-12-18T11:33:37;18.57;;;10.37;;
19278;SDS011;9773;47.062;15.446;2022-12-18T11:36:07;18.83;;;11.73;;
19278;SDS011;9773;47.062;15.446;2022-12-18T11:38:37;20.27;;;11.33;;
19278;SDS011;9773;47.062;15.446;2022-12-18T11:44:19;16.37;;;10.93;;
19278;SDS011;9773;47.062;15.446;2022-12-18T11:47:08;18.40;;;10.33;;
19278;SDS011;9773;47.062;15.446;2022-12-18T11:49:42;20.47;;;11.87;;
19278;SDS011;9773;47.062;15.446;2022-12-18T11:52:26;18.83;;;11.70;;
19278;SDS011;9773;47.062;15.446;2022-12-18T11:54:55;23.37;;;12.70;;
19278;SDS011;9773;47.062;15.446;2022-12-18T11:57:36;18.13;;;11.73;;
19278;SDS011;9773;47.062;15.446;2022-12-18T12:00:09;20.03;;;12.00;;
19278;SDS011;9773;47.062;15.446;2022-12-18T12:08:32;23.07;;;13.03;;
19278;SDS011;9773;47.062;15.446;2022-12-18T12:14:03;19.23;;;12.03;;
19278;SDS011;9773;47.062;15.446;2022-12-18T12:19:38;20.73;;;12.83;;
19278;SDS011;9773;47.062;15.446;2022-12-18T12:25:33;21.60;;;12.33;;
19278;SDS011;9773;47.062;15.446;2022-12-18T12:28:05;21.27;;;12.00;;
19278;SDS011;9773;47.062;15.446;2022-12-18T12:38:51;26.03;;;15.80;;
19278;SDS011;9773;47.062;15.446;2022-12-18T12:41:24;26.10;;;14.53;;
19278;SDS011;9773;47.062;15.446;2022-12-18T12:44:16;21.73;;;12.80;;
19278;SDS011;9773;47.062;15.446;2022-12-18T12:46:45;22.60;;;13.37;;
19278;SDS011;9773;47.062;15.446;2022-12-18T12:49:15;24.50;;;14.97;;
19278;SDS011;9773;47.062;15.446;2022-12-18T12:51:45;26.83;;;15.23;;
19278;SDS011;9773;47.062;15.446;2022-12-18T12:54:22;24.20;;;12.70;;
19278;SDS011;9773;47.062;15.446;2022-12-18T12:57:00;26.07;;;15.53;;
19278;SDS011;9773;47.062;15.446;2022-12-18T13:00:00;25.67;;;14.90;;
19278;SDS011;9773;47.062;15.446;2022-12-18T13:02:42;23.50;;;14.23;;
19278;SDS011;9773;47.062;15.446;2022-12-18T13:08:09;22.23;;;12.13;;
19278;SDS011;9773;47.062;15.446;2022-12-18T13:10:40;21.60;;;12.33;;
19278;SDS011;9773;47.062;15.446;2022-12-18T13:13:08;24.20;;;13.37;;
19278;SDS011;9773;47.062;15.446;2022-12-18T13:15:41;23.63;;;12.27;;
19278;SDS011;9773;47.062;15.446;2022-12-18T13:20:38;25.50;;;13.97;;
19278;SDS011;9773;47.062;15.446;2022-12-18T13:23:19;25.97;;;12.60;;
19278;SDS011;9773;47.062;15.446;2022-12-18T13:25:57;19.10;;;11.57;;
19278;SDS011;9773;47.062;15.446;2022-12-18T13:31:01;21.30;;;10.70;;
19278;SDS011;9773;47.062;15.446;2022-12-18T13:36:00;20.50;;;11.67;;
19278;SDS011;9773;47.062;15.446;2022-12-18T13:38:45;22.13;;;11.87;;
19278;SDS011;9773;47.062;15.446;2022-12-18T13:43:43;25.10;;;13.20;;
19278;SDS011;9773;47.062;15.446;2022-12-18T13:51:42;20.77;;;12.30;;
19278;SDS011;9773;47.062;15.446;2022-12-18T13:56:46;21.20;;;12.43;;
19278;SDS011;9773;47.062;15.446;2022-12-18T13:59:23;22.60;;;11.83;;
19278;SDS011;9773;47.062;15.446;2022-12-18T14:01:55;24.53;;;12.37;;
19278;SDS011;9773;47.062;15.446;2022-12-18T14:04:24;22.50;;;12.53;;
19278;SDS011;9773;47.062;15.446;2022-12-18T14:06:56;22.77;;;12.53;;
19278;SDS011;9773;47.062;15.446;2022-12-18T14:09:36;20.63;;;11.77;;
19278;SDS011;9773;47.062;15.446;2022-12-18T14:12:05;22.73;;;11.73;;
19278;SDS011;9773;47.062;15.446;2022-12-18T14:14:52;24.30;;;12.50;;
19278;SDS011;9773;47.062;15.446;2022-12-18T14:17:18;26.30;;;12.53;;
19278;SDS011;9773;47.062;15.446;2022-12-18T14:19:45;23.03;;;12.77;;
19278;SDS011;9773;47.062;15.446;2022-12-18T14:22:14;24.47;;;12.97;;
19278;SDS011;9773;47.062;15.446;2022-12-18T14:24:45;22.93;;;13.00;;
19278;SDS011;9773;47.062;15.446;2022-12-18T14:27:22;24.37;;;12.63;;
19278;SDS011;9773;47.062;15.446;2022-12-18T14:29:50;24.83;;;12.47;;
19278;SDS011;9773;47.062;15.446;2022-12-18T14:32:19;25.37;;;12.57;;
19278;SDS011;9773;47.062;15.446;2022-12-18T14:34:49;22.87;;;12.40;;
19278;SDS011;9773;47.062;15.446;2022-12-18T14:37:25;25.63;;;12.87;;
19278;SDS011;9773;47.062;15.446;2022-12-18T14:39:53;24.50;;;13.37;;
19278;SDS011;9773;47.062;15.446;2022-12-18T14:42:27;21.87;;;12.50;;
19278;SDS011;9773;47.062;15.446;2022-12-18T14:47:57;24.80;;;11.80;;
19278;SDS011;9773;47.062;15.446;2022-12-18T14:50:26;23.27;;;12.40;;
19278;SDS011;9773;47.062;15.446;2022-12-18T14:52:52;23.83;;;12.23;;
19278;SDS011;9773;47.062;15.446;2022-12-18T14:55:18;24.40;;;12.17;;
19278;SDS011;9773;47.062;15.446;2022-12-18T14:57:45;21.43;;;12.50;;
19278;SDS011;9773;47.062;15.446;2022-12-18T15:00:18;23.23;;;13.40;;
19278;SDS011;9773;47.062;15.446;2022-12-18T15:02:55;22.37;;;12.53;;
19278;SDS011;9773;47.062;15.446;2022-12-18T15:07:54;24.03;;;13.23;;
19278;SDS011;9773;47.062;15.446;2022-12-18T15:18:12;24.23;;;12.97;;
19278;SDS011;9773;47.062;15.446;2022-12-18T15:20:56;24.27;;;13.23;;
19278;SDS011;9773;47.062;15.446;2022-12-18T15:26:15;25.43;;;12.67;;
19278;SDS011;9773;47.062;15.446;2022-12-18T15:34:01;25.63;;;13.77;;
19278;SDS011;9773;47.062;15.446;2022-12-18T15:36:28;26.43;;;13.13;;
19278;SDS011;9773;47.062;15.446;2022-12-18T15:38:55;23.27;;;13.03;;
19278;SDS011;9773;47.062;15.446;2022-12-18T15:41:23;25.40;;;12.77;;
19278;SDS011;9773;47.062;15.446;2022-12-18T15:43:52;20.93;;;12.33;;
19278;SDS011;9773;47.062;15.446;2022-12-18T15:46:22;23.10;;;12.27;;
19278;SDS011;9773;47.062;15.446;2022-12-18T15:48:50;24.03;;;11.97;;
19278;SDS011;9773;47.062;15.446;2022-12-18T15:51:21;21.83;;;11.83;;
19278;SDS011;9773;47.062;15.446;2022-12-18T15:53:52;21.73;;;11.67;;
19278;SDS011;9773;47.062;15.446;2022-12-18T15:56:22;24.80;;;12.70;;
19278;SDS011;9773;47.062;15.446;2022-12-18T15:59:14;27.27;;;13.63;;
19278;SDS011;9773;47.062;15.446;2022-12-18T16:01:45;27.17;;;13.63;;
19278;SDS011;9773;47.062;15.446;2022-12-18T16:04:14;25.20;;;12.93;;
19278;SDS011;9773;47.062;15.446;2022-12-18T16:06:41;26.13;;;12.37;;
19278;SDS011;9773;47.062;15.446;2022-12-18T16:09:08;27.07;;;13.37;;
19278;SDS011;9773;47.062;15.446;2022-12-18T16:11:35;26.20;;;13.77;;
19278;SDS011;9773;47.062;15.446;2022-12-18T16:14:17;24.63;;;13.33;;
19278;SDS011;9773;47.062;15.446;2022-12-18T16:16:53;24.47;;;13.40;;
19278;SDS011;9773;47.062;15.446;2022-12-18T16:19:26;23.03;;;12.47;;
19278;SDS011;9773;47.062;15.446;2022-12-18T16:21:54;26.30;;;12.63;;
19278;SDS011;9773;47.062;15.446;2022-12-18T16:24:24;22.90;;;13.17;;
19278;SDS011;9773;47.062;15.446;2022-12-18T16:26:56;24.17;;;12.33;;
19278;SDS011;9773;47.062;15.446;2022-12-18T16:29:24;23.40;;;13.20;;
19278;SDS011;9773;47.062;15.446;2022-12-18T16:31:56;23.30;;;11.97;;
19278;SDS011;9773;47.062;15.446;2022-12-18T16:34:30;31.40;;;14.67;;
19278;SDS011;9773;47.062;15.446;2022-12-18T16:37:05;26.37;;;12.93;;
19278;SDS011;9773;47.062;15.446;2022-12-18T16:39:33;28.47;;;13.53;;
19278;SDS011;9773;47.062;15.446;2022-12-18T16:42:01;25.00;;;12.27;;
19278;SDS011;9773;47.062;15.446;2022-12-18T16:44:34;22.20;;;12.10;;
19278;SDS011;9773;47.062;15.446;2022-12-18T16:47:00;25.17;;;12.93;;
19278;SDS011;9773;47.062;15.446;2022-12-18T16:49:27;26.77;;;13.53;;
19278;SDS011;9773;47.062;15.446;2022-12-18T16:51:54;23.70;;;12.83;;
19278;SDS011;9773;47.062;15.446;2022-12-18T16:54:20;27.13;;;13.80;;